Time;durP1;ratioP1;P1;durP2;ratioP2;P2;SDS_P1;SDS_P2;PMS_P1;PMS_P2;Temp;Humidity;BMP_temperature;BMP_pressure;BME280_temperature;BME280_humidity;BME280_pressure;Samples;Min_cycle;Max_cycle;Signal;HPM_P1;HPM_P2
2020/12/20 00:01:45;;;;;;;26.00;23.58;;;;;;;1.12;72.77;100673.06;10549280;28;20397;-66
2020/12/20 00:06:46;;;;;;;28.30;25.55;;;;;;;1.26;72.58;100676.75;10527796;28;20063;-65
2020/12/20 00:11:56;;;;;;;29.00;26.20;;;;;;;1.19;72.74;100668.00;10527157;28;20421;-65
2020/12/20 00:17:04;;;;;;;27.15;24.48;;;;;;;1.19;72.59;100665.41;10546992;28;20052;-65
2020/12/20 00:22:11;;;;;;;26.05;23.70;;;;;;;1.23;72.38;100676.69;10547492;28;20436;-64
2020/12/20 00:27:13;;;;;;;24.67;22.58;;;;;;;1.22;72.22;100672.38;10545146;28;20047;-67
2020/12/20 00:32:14;;;;;;;26.92;24.25;;;;;;;1.30;72.13;100667.31;10545044;28;20047;-65
2020/12/20 00:37:15;;;;;;;24.13;21.85;;;;;;;1.23;72.26;100666.34;10544258;28;20093;-66
2020/12/20 00:42:17;;;;;;;25.30;22.88;;;;;;;1.28;71.77;100675.03;10544790;28;20040;-64
2020/12/20 00:47:18;;;;;;;23.98;21.52;;;;;;;1.33;71.58;100683.78;10526453;28;20055;-65
2020/12/20 00:52:19;;;;;;;23.05;21.20;;;;;;;1.28;71.58;100677.63;10544826;28;20040;-67
2020/12/20 00:57:25;;;;;;;23.08;20.83;;;;;;;1.29;71.60;100696.66;10544620;28;20574;-65
2020/12/20 01:02:27;;;;;;;25.67;23.08;;;;;;;1.25;71.74;100686.25;10538583;22;21506;-64
2020/12/20 01:07:32;;;;;;;25.75;23.35;;;;;;;1.19;71.68;100693.88;10539264;28;20138;-64
2020/12/20 01:12:33;;;;;;;27.13;24.35;;;;;;;1.07;72.27;100703.19;10539113;28;20405;-65
2020/12/20 01:17:46;;;;;;;24.33;21.92;;;;;;;1.11;71.98;100702.41;10520927;28;20055;-64
2020/12/20 01:22:51;;;;;;;27.85;25.02;;;;;;;0.99;72.38;100695.28;10521316;28;20044;-66
2020/12/20 01:27:53;;;;;;;25.98;23.48;;;;;;;1.20;72.01;100687.03;10538957;28;20051;-65
2020/12/20 01:33:01;;;;;;;26.52;23.88;;;;;;;1.04;72.55;100685.88;10520886;28;20036;-65
2020/12/20 01:38:03;;;;;;;31.50;27.75;;;;;;;0.93;72.77;100687.41;10520968;28;20047;-64
2020/12/20 01:43:05;;;;;;;37.20;28.98;;;;;;;0.82;73.23;100689.81;10524273;28;20044;-66
2020/12/20 01:48:11;;;;;;;27.75;24.95;;;;;;;0.96;72.82;100687.47;10528078;28;20469;-64
2020/12/20 01:53:17;;;;;;;35.10;27.45;;;;;;;0.90;73.09;100684.78;10528863;28;20048;-65
2020/12/20 01:58:21;;;;;;;34.03;26.92;;;;;;;0.75;73.29;100686.25;10527998;28;20051;-64
2020/12/20 02:03:32;;;;;;;30.17;26.77;;;;;;;0.89;73.18;100683.03;10527517;28;20079;-64
2020/12/20 02:08:35;;;;;;;32.03;28.55;;;;;;;0.91;72.74;100682.19;10533785;28;20052;-65
2020/12/20 02:13:49;;;;;;;29.50;26.02;;;;;;;0.97;72.81;100673.66;10553048;28;20055;-65
2020/12/20 02:18:52;;;;;;;30.15;26.52;;;;;;;0.90;72.86;100670.09;10535016;28;20560;-65
2020/12/20 02:23:55;;;;;;;34.60;27.10;;;;;;;0.91;72.96;100670.97;10511371;28;20045;-66
2020/12/20 02:29:04;;;;;;;32.33;27.10;;;;;;;0.75;73.39;100682.75;10528198;28;20126;-63
2020/12/20 02:34:05;;;;;;;31.83;27.15;;;;;;;0.84;73.05;100676.88;10526882;28;20509;-64
2020/12/20 02:39:08;;;;;;;27.77;24.80;;;;;;;0.99;72.64;100678.03;10525819;28;20064;-65
2020/12/20 02:44:22;;;;;;;28.33;24.63;;;;;;;1.02;72.23;100677.22;10527727;28;20048;-65
2020/12/20 02:49:26;;;;;;;29.45;26.27;;;;;;;0.92;72.68;100680.47;10525748;28;20146;-65
2020/12/20 02:54:32;;;;;;;29.45;26.35;;;;;;;1.00;72.45;100677.19;10525133;28;20070;-65
2020/12/20 02:59:37;;;;;;;28.20;25.33;;;;;;;0.87;72.95;100674.34;10525925;28;20520;-65
2020/12/20 03:04:38;;;;;;;26.38;23.58;;;;;;;1.03;72.16;100671.19;10524769;28;20052;-65
2020/12/20 03:09:39;;;;;;;26.67;24.05;;;;;;;0.84;72.39;100659.66;10542115;28;20044;-66
2020/12/20 03:14:41;;;;;;;26.98;24.30;;;;;;;0.89;72.63;100664.91;10523861;28;20040;-65
2020/12/20 03:19:42;;;;;;;26.13;23.50;;;;;;;1.07;71.99;100665.22;10522904;28;20082;-66
2020/12/20 03:24:47;;;;;;;28.63;25.63;;;;;;;0.89;72.33;100665.78;10523089;28;20048;-64
2020/12/20 03:30:00;;;;;;;25.75;22.92;;;;;;;0.86;72.61;100663.13;10522641;28;20131;-64
2020/12/20 03:35:14;;;;;;;27.20;23.95;;;;;;;0.94;72.45;100656.38;10523197;28;20394;-64
2020/12/20 03:40:22;;;;;;;;;;;;;;;0.91;72.29;100651.13;10522419;28;20050;-64
2020/12/20 03:45:23;;;;;;;28.05;24.90;;;;;;;0.72;73.29;100643.91;10506838;28;20328;-65
2020/12/20 03:50:25;;;;;;;28.27;25.27;;;;;;;0.92;72.48;100649.41;10521069;28;20187;-64
2020/12/20 03:55:26;;;;;;;29.42;26.08;;;;;;;0.69;73.35;100656.78;10521050;28;20063;-64
2020/12/20 04:00:29;;;;;;;29.80;26.10;;;;;;;0.82;73.26;100642.34;10520849;28;20203;-65
2020/12/20 04:05:42;;;;;;;30.42;26.73;;;;;;;0.82;73.14;100650.97;10499738;28;652052;-64
2020/12/20 04:10:44;;;;;;;34.17;27.33;;;;;;;0.71;73.22;100647.34;10524354;28;20047;-65
2020/12/20 04:15:45;;;;;;;28.55;25.50;;;;;;;0.85;72.84;100656.22;10522655;28;20074;-65
2020/12/20 04:20:46;;;;;;;26.23;23.33;;;;;;;1.00;72.41;100650.44;10522371;28;20509;-65
2020/12/20 04:25:48;;;;;;;24.85;22.63;;;;;;;0.81;72.50;100657.00;10522799;28;20485;-64
2020/12/20 04:30:55;;;;;;;;;;;;;;;0.70;72.87;100655.94;10522912;28;20512;-64
2020/12/20 04:36:04;;;;;;;22.08;19.98;;;;;;;0.69;72.77;100661.97;10522176;28;19919;-65
2020/12/20 04:41:05;;;;;;;20.80;18.95;;;;;;;0.77;72.64;100659.53;10523461;28;20387;-64
2020/12/20 04:46:09;;;;;;;21.40;19.45;;;;;;;0.88;72.25;100648.50;10522491;28;20060;-64
2020/12/20 04:51:24;;;;;;;21.20;19.23;;;;;;;0.65;72.80;100654.97;10520967;28;20093;-65
2020/12/20 04:56:28;;;;;;;22.48;20.40;;;;;;;0.68;72.71;100660.22;10521067;28;20044;-64
2020/12/20 05:01:39;;;;;;;22.60;20.42;;;;;;;0.80;72.41;100675.06;10520458;28;20079;-64
2020/12/20 05:06:42;;;;;;;22.73;20.15;;;;;;;0.53;72.92;100658.19;10520224;28;20157;-64
2020/12/20 05:11:54;;;;;;;22.98;20.52;;;;;;;0.70;72.72;100655.94;10520882;28;20051;-65
2020/12/20 05:17:02;;;;;;;22.88;20.58;;;;;;;0.55;73.10;100653.06;10522246;28;20131;-64
2020/12/20 05:22:21;;;;;;;22.02;19.95;;;;;;;0.62;72.85;100663.56;10529983;28;20046;-64
2020/12/20 05:27:33;;;;;;;21.98;19.80;;;;;;;0.78;72.32;100669.03;10528722;28;20535;-64
2020/12/20 05:32:45;;;;;;;19.40;17.70;;;;;;;0.80;72.04;100668.22;10528500;28;20048;-64
2020/12/20 05:37:48;;;;;;;21.30;19.45;;;;;;;0.66;72.08;100673.09;10528585;28;20379;-64
2020/12/20 05:43:08;;;;;;;20.27;18.35;;;;;;;0.72;72.29;100674.97;10513170;28;20493;-64
2020/12/20 05:48:19;;;;;;;20.33;18.52;;;;;;;0.86;71.83;100668.31;10528598;28;20070;-64
2020/12/20 05:53:27;;;;;;;19.50;17.80;;;;;;;0.68;72.10;100666.25;10511471;28;20078;-64
2020/12/20 05:58:30;;;;;;;18.98;17.42;;;;;;;0.74;71.90;100676.72;10545166;28;20055;-64
2020/12/20 06:03:33;;;;;;;22.60;20.38;;;;;;;0.80;71.88;100669.91;10545177;28;20036;-64
2020/12/20 06:08:38;;;;;;;20.33;18.55;;;;;;;0.66;71.92;100667.06;10545209;28;20094;-64
2020/12/20 06:13:42;;;;;;;19.02;17.42;;;;;;;0.65;72.16;100673.97;10526863;28;20047;-64
2020/12/20 06:18:50;;;;;;;18.55;16.88;;;;;;;0.79;71.91;100686.28;10544489;28;20040;-64
2020/12/20 06:23:56;;;;;;;18.70;17.20;;;;;;;0.87;71.38;100683.00;10527169;28;20044;-64
2020/12/20 06:29:03;;;;;;;17.08;15.65;;;;;;;0.85;71.13;100683.81;10525739;28;20093;-64
2020/12/20 06:34:09;;;;;;;17.40;16.00;;;;;;;0.77;71.49;100688.84;10526874;28;20358;-64
2020/12/20 06:39:10;;;;;;;16.80;15.15;;;;;;;0.62;72.09;100685.97;10544283;28;20123;-64
2020/12/20 06:44:15;;;;;;;16.52;15.13;;;;;;;0.62;71.85;100685.97;10544144;28;20043;-64
2020/12/20 06:49:32;;;;;;;16.98;15.57;;;;;;;0.77;71.71;100690.56;10543819;28;20040;-64
2020/12/20 06:54:33;;;;;;;16.38;14.98;;;;;;;0.61;72.01;100699.75;10543730;28;20441;-64
2020/12/20 06:59:45;;;;;;;16.27;14.93;;;;;;;0.80;71.23;100685.44;10543208;28;20063;-64
2020/12/20 07:04:46;;;;;;;14.75;13.38;;;;;;;0.83;71.39;100699.31;10539033;22;20048;-65
2020/12/20 07:09:48;;;;;;;16.00;14.55;;;;;;;0.74;71.01;100707.78;10546341;28;20036;-65
2020/12/20 07:14:49;;;;;;;14.60;13.40;;;;;;;0.75;71.87;100708.63;10545352;28;20409;-65
2020/12/20 07:20:10;;;;;;;14.70;13.55;;;;;;;0.78;71.60;100708.69;10528413;28;20036;-65
2020/12/20 07:25:12;;;;;;;15.18;13.88;;;;;;;0.89;71.28;100714.97;10546447;28;20493;-63
2020/12/20 07:30:13;;;;;;;16.08;14.77;;;;;;;0.88;71.17;100709.75;10544861;28;20040;-65
2020/12/20 07:35:15;;;;;;;14.70;13.50;;;;;;;1.11;71.00;100723.13;10527573;28;20060;-64
2020/12/20 07:40:18;;;;;;;15.60;14.38;;;;;;;0.91;71.31;100718.44;10545519;28;20032;-67
2020/12/20 07:45:20;;;;;;;14.52;13.35;;;;;;;1.08;71.24;100707.53;10543985;28;20040;-63
2020/12/20 07:50:24;;;;;;;15.13;13.93;;;;;;;1.18;70.66;100719.78;10544754;28;20101;-66
2020/12/20 07:55:26;;;;;;;15.15;13.95;;;;;;;1.22;70.36;100712.06;10543853;28;20374;-65
2020/12/20 08:00:27;;;;;;;14.43;13.32;;;;;;;1.33;70.61;100707.09;10543549;28;20089;-65
2020/12/20 08:05:28;;;;;;;15.52;14.23;;;;;;;1.38;70.48;100704.59;10543865;28;20091;-65
2020/12/20 08:10:29;;;;;;;14.40;13.20;;;;;;;1.19;70.83;100708.56;10525550;28;20036;-65
2020/12/20 08:15:31;;;;;;;14.25;13.15;;;;;;;1.51;70.19;100704.78;10543061;28;20089;-65
2020/12/20 08:20:32;;;;;;;14.00;12.85;;;;;;;1.65;69.52;100702.41;10508118;28;20048;-65
2020/12/20 08:25:34;;;;;;;14.50;13.40;;;;;;;1.60;69.83;100706.66;10542731;28;20048;-64
2020/12/20 08:30:38;;;;;;;13.82;12.73;;;;;;;1.63;69.92;100709.28;10543796;28;20512;-63
2020/12/20 08:35:39;;;;;;;13.82;12.77;;;;;;;1.70;69.63;100705.06;10524748;28;20047;-65
2020/12/20 08:40:41;;;;;;;14.23;13.10;;;;;;;1.78;69.62;100703.47;10542575;28;20040;-66
2020/12/20 08:45:45;;;;;;;13.35;12.15;;;;;;;1.91;69.12;100704.53;10544224;28;20044;-65
2020/12/20 08:50:54;;;;;;;14.80;13.63;;;;;;;2.00;68.89;100699.47;10508856;28;20051;-66
2020/12/20 08:55:56;;;;;;;14.88;13.70;;;;;;;2.16;68.47;100709.16;10522785;28;20044;-65
2020/12/20 09:01:13;;;;;;;15.40;14.20;;;;;;;2.22;68.53;100713.59;10542147;28;20044;-65
2020/12/20 09:06:14;;;;;;;14.73;13.63;;;;;;;2.22;68.41;100706.66;10524067;28;20288;-65
2020/12/20 09:11:26;;;;;;;14.43;13.27;;;;;;;2.21;68.31;100707.53;10541811;28;20073;-66
2020/12/20 09:16:40;;;;;;;14.57;13.48;;;;;;;2.46;67.68;100716.47;10542347;28;20040;-65
2020/12/20 09:21:48;;;;;;;13.48;12.38;;;;;;;2.50;67.53;100713.06;10541380;28;20069;-66
2020/12/20 09:26:59;;;;;;;15.77;14.48;;;;;;;2.52;67.85;100716.56;10522843;28;20078;-66
2020/12/20 09:32:10;;;;;;;15.00;13.80;;;;;;;2.64;67.25;100701.97;10541539;28;20081;-65
2020/12/20 09:37:11;;;;;;;14.45;13.35;;;;;;;2.68;67.34;100695.97;10542086;28;20050;-66
2020/12/20 09:42:12;;;;;;;13.82;12.77;;;;;;;2.56;67.84;100690.63;10541927;28;20451;-65
2020/12/20 09:47:13;;;;;;;13.25;12.25;;;;;;;2.68;67.40;100696.81;10540468;28;20048;-65
2020/12/20 09:52:14;;;;;;;13.57;12.48;;;;;;;2.90;67.43;100691.84;10522990;28;20497;-65
2020/12/20 09:57:33;;;;;;;13.35;12.35;;;;;;;3.03;66.90;100684.19;10542150;28;20109;-65
2020/12/20 10:02:34;;;;;;;13.23;12.20;;;;;;;3.15;66.58;100682.56;10521474;28;20083;-64
2020/12/20 10:07:35;;;;;;;13.00;12.00;;;;;;;3.09;67.07;100679.91;10547675;28;20044;-65
2020/12/20 10:12:37;;;;;;;13.00;11.93;;;;;;;3.13;66.61;100673.88;10528384;28;20440;-65
2020/12/20 10:17:39;;;;;;;13.10;12.10;;;;;;;3.24;66.28;100677.47;10548421;28;20063;-66
2020/12/20 10:22:40;;;;;;;11.63;10.73;;;;;;;3.09;66.48;100665.19;10547237;28;20064;-65
2020/12/20 10:27:53;;;;;;;11.65;10.75;;;;;;;3.30;66.03;100667.09;10547566;28;20036;-65
2020/12/20 10:32:55;;;;;;;10.82;9.93;;;;;;;3.25;66.11;100658.41;10528427;28;20261;-66
2020/12/20 10:37:56;;;;;;;12.20;11.30;;;;;;;3.31;66.49;100657.56;10528516;28;20089;-65
2020/12/20 10:42:58;;;;;;;11.30;10.50;;;;;;;3.36;65.69;100655.88;10548475;28;20481;-65
2020/12/20 10:48:00;;;;;;;11.63;10.75;;;;;;;3.58;65.29;100659.50;10547126;28;20512;-65
2020/12/20 10:53:02;;;;;;;12.23;11.32;;;;;;;3.56;65.41;100653.44;10528138;28;20044;-64
2020/12/20 10:58:10;;;;;;;10.82;10.02;;;;;;;3.52;65.04;100653.41;10545612;28;20416;-65
2020/12/20 11:03:11;;;;;;;10.68;9.88;;;;;;;3.78;64.17;100648.38;10528492;28;20039;-66
2020/12/20 11:08:12;;;;;;;10.68;9.88;;;;;;;3.85;64.33;100651.88;10545458;28;20044;-65
2020/12/20 11:13:14;;;;;;;10.77;9.98;;;;;;;4.51;62.41;100644.31;10527039;28;20040;-66
2020/12/20 11:18:15;;;;;;;9.85;8.95;;;;;;;6.11;58.16;100635.59;10543716;28;20099;-66
2020/12/20 11:23:17;;;;;;;10.00;9.30;;;;;;;6.07;57.87;100639.94;10527718;28;20509;-64
2020/12/20 11:28:32;;;;;;;8.18;7.57;;;;;;;8.03;53.24;100630.56;10527171;28;20474;-65
2020/12/20 11:33:34;;;;;;;9.50;8.80;;;;;;;7.55;53.47;100627.59;10527804;28;20039;-65
2020/12/20 11:38:36;;;;;;;9.82;9.18;;;;;;;6.43;56.22;100632.81;10545328;28;20394;-65
2020/12/20 11:43:37;;;;;;;10.50;9.65;;;;;;;5.97;57.93;100637.34;10544975;28;20047;-65
2020/12/20 11:48:38;;;;;;;9.68;8.95;;;;;;;5.68;58.57;100627.00;10525486;28;20377;-65
2020/12/20 11:53:40;;;;;;;10.63;9.93;;;;;;;5.84;58.47;100626.06;10543867;28;20432;-65
2020/12/20 11:58:49;;;;;;;10.63;9.73;;;;;;;5.09;60.30;100630.50;10545601;28;20056;-65
2020/12/20 12:03:50;;;;;;;10.50;9.70;;;;;;;5.03;60.56;100618.34;10547320;28;20036;-65
2020/12/20 12:08:51;;;;;;;11.00;10.25;;;;;;;4.68;61.04;100615.72;10546342;28;20362;-64
2020/12/20 12:13:52;;;;;;;9.98;9.27;;;;;;;5.06;60.56;100618.38;10544697;28;20036;-64
2020/12/20 12:18:54;;;;;;;10.52;9.73;;;;;;;5.02;60.41;100617.50;10544446;28;20422;-64
2020/12/20 12:23:55;;;;;;;10.73;9.93;;;;;;;5.13;60.47;100614.88;10544652;28;20441;-64
2020/12/20 12:29:07;;;;;;;10.38;9.65;;;;;;;4.78;60.85;100618.34;10545163;28;20124;-65
2020/12/20 12:34:08;;;;;;;10.65;9.77;;;;;;;4.32;62.55;100630.38;10543958;28;20039;-64
2020/12/20 12:39:10;;;;;;;10.55;9.85;;;;;;;3.77;63.70;100628.44;10525127;28;20058;-64
2020/12/20 12:44:12;;;;;;;11.15;10.38;;;;;;;3.43;65.00;100629.94;10526646;28;20112;-64
2020/12/20 12:49:14;;;;;;;11.50;10.70;;;;;;;3.66;64.54;100634.41;10543857;28;20062;-65
2020/12/20 12:54:16;;;;;;;11.23;10.43;;;;;;;3.67;64.66;100630.97;10543629;28;20400;-64
2020/12/20 12:59:29;;;;;;;12.32;11.45;;;;;;;3.58;64.55;100621.38;10544497;28;20036;-65
2020/12/20 13:04:31;;;;;;;13.13;12.23;;;;;;;3.38;65.29;100633.38;10525425;28;20044;-69
2020/12/20 13:09:32;;;;;;;11.88;10.98;;;;;;;3.54;65.13;100624.81;10542607;28;20036;-68
2020/12/20 13:14:33;;;;;;;12.63;11.73;;;;;;;3.50;64.88;100626.53;10523591;28;20143;-70
2020/12/20 13:19:34;;;;;;;11.18;10.27;;;;;;;3.46;64.91;100636.91;10540556;28;20481;-70
2020/12/20 13:24:35;;;;;;;11.60;10.75;;;;;;;3.28;65.51;100640.25;10523754;28;20052;-70
2020/12/20 13:29:44;;;;;;;11.65;10.75;;;;;;;3.14;65.82;100642.72;10522953;28;20044;-69
2020/12/20 13:34:46;;;;;;;12.55;11.65;;;;;;;3.24;65.38;100643.69;10543377;28;20076;-70
2020/12/20 13:39:47;;;;;;;14.27;13.20;;;;;;;2.93;66.39;100643.44;10547252;28;20044;-70
2020/12/20 13:45:03;;;;;;;12.70;11.80;;;;;;;2.93;66.30;100646.03;10553159;28;20044;-69
2020/12/20 13:50:04;;;;;;;14.80;13.60;;;;;;;2.79;66.69;100655.41;10550445;28;20059;-69
2020/12/20 13:55:05;;;;;;;12.98;11.98;;;;;;;2.98;66.21;100649.53;10550077;28;20048;-70
2020/12/20 14:00:07;;;;;;;14.48;13.27;;;;;;;2.83;66.55;100653.69;10550396;28;20066;-71
2020/12/20 14:05:12;;;;;;;14.05;12.95;;;;;;;2.91;66.52;100646.84;10532502;28;20506;-71
2020/12/20 14:10:14;;;;;;;13.82;12.57;;;;;;;2.63;67.18;100650.91;10530209;28;20075;-70
2020/12/20 14:15:15;;;;;;;14.00;13.00;;;;;;;2.72;66.93;100638.03;10549368;28;20130;-71
2020/12/20 14:20:17;;;;;;;13.23;12.32;;;;;;;2.80;66.47;100641.56;10547837;28;20108;-68
2020/12/20 14:25:23;;;;;;;12.55;11.60;;;;;;;2.74;66.89;100644.94;10531329;28;20188;-71
2020/12/20 14:30:24;;;;;;;13.88;12.82;;;;;;;2.32;67.88;100632.41;10547167;28;20032;-69
2020/12/20 14:35:25;;;;;;;14.15;12.95;;;;;;;2.51;67.55;100628.28;10548684;28;20094;-69
2020/12/20 14:40:28;;;;;;;13.00;12.02;;;;;;;2.46;67.54;100643.81;10548048;28;20051;-69
2020/12/20 14:45:32;;;;;;;14.80;13.50;;;;;;;2.31;67.81;100648.84;10548376;28;20051;-70
2020/12/20 14:50:34;;;;;;;13.70;12.60;;;;;;;2.45;67.67;100647.28;10546954;28;20032;-70
2020/12/20 14:55:35;;;;;;;13.52;12.43;;;;;;;2.00;68.75;100643.28;10545665;28;20485;-70
2020/12/20 15:00:38;;;;;;;13.57;12.57;;;;;;;2.08;68.45;100651.16;10547030;28;20036;-71
2020/12/20 15:05:39;;;;;;;15.80;14.60;;;;;;;2.03;68.65;100661.44;10548854;28;20043;-65
2020/12/20 15:10:40;;;;;;;13.70;12.60;;;;;;;1.87;68.88;100656.94;10546750;28;20072;-66
2020/12/20 15:15:41;;;;;;;14.13;13.07;;;;;;;1.86;69.02;100654.31;10528504;28;20043;-65
2020/12/20 15:20:44;;;;;;;14.18;13.18;;;;;;;1.85;69.12;100650.84;10548122;28;20032;-64
2020/12/20 15:25:45;;;;;;;13.85;12.75;;;;;;;1.82;68.97;100647.38;10546955;28;20047;-65
2020/12/20 15:30:51;;;;;;;13.63;12.52;;;;;;;1.98;68.70;100651.88;10546915;28;20044;-66
2020/12/20 15:35:52;;;;;;;14.02;12.82;;;;;;;1.71;69.22;100642.00;10528354;28;20044;-66
2020/12/20 15:40:54;;;;;;;13.80;12.70;;;;;;;1.85;69.09;100644.78;10545705;28;20068;-65
2020/12/20 15:45:55;;;;;;;15.55;14.38;;;;;;;1.74;69.55;100644.66;10510611;28;20570;-65
2020/12/20 15:50:56;;;;;;;16.08;14.77;;;;;;;1.74;69.40;100649.84;10544368;28;20089;-64
2020/12/20 15:56:01;;;;;;;16.83;15.43;;;;;;;1.50;70.42;100640.84;10545044;28;20047;-65
2020/12/20 16:01:07;;;;;;;16.90;15.50;;;;;;;1.67;69.84;100641.09;10524656;28;20385;-66
2020/12/20 16:06:09;;;;;;;17.98;16.58;;;;;;;1.53;70.19;100653.00;10544522;28;20105;-66
2020/12/20 16:11:11;;;;;;;18.42;17.10;;;;;;;1.55;70.08;100658.19;10525981;28;20040;-65
2020/12/20 16:16:20;;;;;;;17.58;16.17;;;;;;;1.48;70.11;100646.88;10543084;28;20068;-66
2020/12/20 16:21:28;;;;;;;20.67;18.98;;;;;;;1.44;70.35;100660.63;10544534;28;20418;-66
2020/12/20 16:26:29;;;;;;;16.88;15.45;;;;;;;1.41;70.07;100660.56;10526219;28;20052;-64
2020/12/20 16:31:41;;;;;;;15.57;14.38;;;;;;;1.47;70.38;100661.56;10543017;28;20044;-65
2020/12/20 16:36:44;;;;;;;15.77;14.48;;;;;;;1.31;70.59;100654.38;10544197;28;20043;-66
2020/12/20 16:41:45;;;;;;;15.70;14.32;;;;;;;1.39;70.35;100651.91;10544009;28;20101;-65
2020/12/20 16:46:49;;;;;;;14.80;13.60;;;;;;;1.49;69.88;100657.25;10545775;28;20043;-67
2020/12/20 16:51:54;;;;;;;;;;;;;;;1.35;70.43;100653.59;10544039;28;20090;-66
2020/12/20 16:56:56;;;;;;;16.42;15.13;;;;;;;1.30;70.56;100663.00;10543128;28;19924;-65
2020/12/20 17:02:01;;;;;;;16.85;15.57;;;;;;;1.35;70.71;100668.25;10542554;28;20036;-66
2020/12/20 17:07:22;;;;;;;15.30;14.18;;;;;;;1.27;70.60;100674.19;10544996;28;20055;-67
2020/12/20 17:12:28;;;;;;;16.67;15.30;;;;;;;1.16;71.25;100682.63;10545062;28;20060;-66
2020/12/20 17:17:34;;;;;;;16.90;15.48;;;;;;;1.37;70.52;100677.78;10541661;28;20044;-66
2020/12/20 17:22:41;;;;;;;17.15;15.85;;;;;;;1.37;70.76;100682.97;10526460;28;20040;-65
2020/12/20 17:27:42;;;;;;;17.50;15.98;;;;;;;1.23;71.11;100679.28;10541884;28;20044;-64
2020/12/20 17:32:49;;;;;;;15.80;14.60;;;;;;;1.45;70.57;100691.72;10527241;28;20071;-65
2020/12/20 17:37:55;;;;;;;16.48;15.18;;;;;;;1.27;70.80;100688.84;10543897;28;20052;-65
2020/12/20 17:43:02;;;;;;;16.48;15.20;;;;;;;1.49;70.76;100687.47;10543237;28;20044;-65
2020/12/20 17:48:11;;;;;;;17.45;16.25;;;;;;;1.40;70.67;100689.91;10542744;28;20079;-66
2020/12/20 17:53:17;;;;;;;16.90;15.33;;;;;;;1.71;70.02;100694.72;10545543;28;20036;-66
2020/12/20 17:58:18;;;;;;;16.55;15.25;;;;;;;1.40;70.62;100690.78;10525858;28;20044;-67
2020/12/20 18:03:20;;;;;;;20.45;18.75;;;;;;;1.62;70.02;100689.41;10545040;28;20076;-65
2020/12/20 18:08:22;;;;;;;16.80;15.60;;;;;;;1.55;70.41;100690.19;10543518;28;20051;-66
2020/12/20 18:13:23;;;;;;;16.60;15.30;;;;;;;1.66;70.06;100692.91;10529834;28;20029;-65
2020/12/20 18:18:25;;;;;;;17.33;16.10;;;;;;;1.51;70.39;100689.25;10512809;28;20059;-65
2020/12/20 18:23:26;;;;;;;16.70;15.43;;;;;;;1.59;70.31;100701.44;10548372;28;20048;-65
2020/12/20 18:28:27;;;;;;;17.42;16.13;;;;;;;1.64;70.22;100704.97;10554470;28;20044;-66
2020/12/20 18:33:30;;;;;;;16.23;15.02;;;;;;;1.71;70.21;100709.41;10534335;28;20052;-66
2020/12/20 18:38:32;;;;;;;16.83;15.57;;;;;;;1.70;70.18;100699.88;10554889;28;20085;-66
2020/12/20 18:43:33;;;;;;;16.55;15.45;;;;;;;1.66;70.07;100703.28;10552423;28;20093;-66
2020/12/20 18:48:34;;;;;;;18.75;17.30;;;;;;;1.60;70.57;100698.03;10552822;28;20386;-66
2020/12/20 18:53:35;;;;;;;18.48;16.88;;;;;;;1.70;70.09;100698.16;10533149;28;20146;-67
2020/12/20 18:58:37;;;;;;;18.02;16.83;;;;;;;1.75;70.30;100699.09;10532927;28;20080;-66
2020/12/20 19:08:58;;;;;;;19.45;18.00;;;;;;;1.90;69.52;100707.94;10461729;28;20391;-66
2020/12/20 19:14:00;;;;;;;18.90;17.42;;;;;;;1.95;69.42;100707.19;10443054;28;20112;-66
2020/12/20 19:19:04;;;;;;;17.13;15.82;;;;;;;1.87;69.46;100710.50;10460822;28;20083;-65
2020/12/20 19:24:05;;;;;;;19.08;17.65;;;;;;;1.92;69.19;100707.13;10461218;28;20073;-65
2020/12/20 19:29:10;;;;;;;17.80;16.50;;;;;;;1.76;70.00;100707.75;10460320;28;20061;-66
2020/12/20 19:34:13;;;;;;;18.13;16.52;;;;;;;1.87;69.74;100715.69;10464394;28;20072;-66
2020/12/20 19:39:15;;;;;;;18.77;17.23;;;;;;;1.85;69.68;100718.25;10459785;28;20041;-65
2020/12/20 19:44:17;;;;;;;19.05;17.65;;;;;;;1.97;69.54;100720.16;10460720;28;20087;-63
2020/12/20 19:49:19;;;;;;;17.65;16.35;;;;;;;1.91;69.76;100715.75;10442905;28;20079;-66
2020/12/20 19:54:20;;;;;;;16.40;15.20;;;;;;;1.83;69.88;100706.13;10459487;28;20041;-66
2020/12/20 19:59:26;;;;;;;17.48;16.17;;;;;;;1.77;70.14;100715.56;10441475;28;20052;-66
2020/12/20 20:04:27;;;;;;;15.32;14.13;;;;;;;1.91;69.85;100715.75;10459619;28;20077;-64
2020/12/20 20:09:28;;;;;;;17.92;16.63;;;;;;;1.97;69.66;100721.00;10459817;28;20052;-66
2020/12/20 20:14:30;;;;;;;16.48;15.20;;;;;;;2.03;69.56;100715.91;10459007;28;20451;-64
2020/12/20 20:19:31;;;;;;;15.40;14.30;;;;;;;2.06;69.19;100722.00;10457896;28;20049;-65
2020/12/20 20:24:33;;;;;;;15.68;14.48;;;;;;;2.11;69.17;100733.31;10457677;28;20498;-65
2020/12/20 20:29:34;;;;;;;16.40;15.10;;;;;;;1.94;69.52;100730.47;10457475;28;20474;-66
2020/12/20 20:34:35;;;;;;;16.80;15.57;;;;;;;1.82;70.36;100733.78;10439973;28;20135;-65
2020/12/20 20:39:36;;;;;;;14.55;13.45;;;;;;;1.96;69.43;100736.56;10457556;28;20045;-65
2020/12/20 20:44:37;;;;;;;15.88;14.55;;;;;;;1.98;69.78;100742.63;10457196;28;20066;-64
2020/12/20 20:49:39;;;;;;;16.42;15.25;;;;;;;1.80;69.96;100753.59;10438966;28;20118;-66
2020/12/20 20:54:40;;;;;;;15.18;14.07;;;;;;;1.90;69.95;100758.06;10439083;28;20091;-65
2020/12/20 20:59:41;;;;;;;15.35;14.15;;;;;;;1.97;69.94;100749.53;10456042;28;20080;-65
2020/12/20 21:04:43;;;;;;;14.95;13.95;;;;;;;2.00;69.83;100772.94;10455852;28;20121;-65
2020/12/20 21:09:45;;;;;;;15.63;14.50;;;;;;;1.87;69.96;100773.59;10455805;28;20127;-66
2020/12/20 21:14:46;;;;;;;16.55;15.20;;;;;;;2.00;69.93;100766.88;10437704;28;20049;-65
2020/12/20 21:19:48;;;;;;;17.33;16.02;;;;;;;1.80;70.38;100771.75;10438605;28;20446;-66
2020/12/20 21:24:49;;;;;;;15.15;13.95;;;;;;;2.00;69.78;100770.34;10438302;28;20124;-66
2020/12/20 21:29:50;;;;;;;16.23;15.02;;;;;;;2.06;69.50;100774.72;10455520;28;20450;-66
2020/12/20 21:34:51;;;;;;;15.90;14.77;;;;;;;2.09;69.55;100782.56;10455648;28;20106;-65
2020/12/20 21:39:52;;;;;;;16.60;15.40;;;;;;;2.22;69.19;100781.91;10438337;28;20418;-66
2020/12/20 21:44:54;;;;;;;16.15;14.95;;;;;;;2.01;69.82;100789.34;10456535;28;20048;-66
2020/12/20 21:49:55;;;;;;;17.67;16.38;;;;;;;2.18;69.23;100798.25;10437004;28;20094;-65
2020/12/20 21:54:56;;;;;;;15.63;14.52;;;;;;;2.24;69.48;100807.84;10437039;28;20491;-66
2020/12/20 21:59:58;;;;;;;16.70;15.38;;;;;;;2.25;69.68;100807.00;10457181;28;20068;-65
2020/12/20 22:05:00;;;;;;;16.88;15.57;;;;;;;2.34;69.19;100807.13;10462839;28;20041;-65
2020/12/20 22:10:01;;;;;;;16.00;14.80;;;;;;;2.30;69.58;100805.31;10462403;28;20472;-66
2020/12/20 22:15:03;;;;;;;15.57;14.43;;;;;;;2.51;68.88;100804.75;10466388;28;20075;-65
2020/12/20 22:20:06;;;;;;;17.08;15.82;;;;;;;2.14;69.87;100813.75;10464930;28;20045;-65
2020/12/20 22:25:08;;;;;;;15.10;14.00;;;;;;;2.36;69.20;100815.81;10462060;28;20514;-65
2020/12/20 22:30:09;;;;;;;16.95;15.65;;;;;;;2.41;69.51;100826.25;10462523;28;20106;-65
2020/12/20 22:35:11;;;;;;;16.38;15.18;;;;;;;2.49;68.77;100835.03;10462453;28;20052;-65
2020/12/20 22:40:12;;;;;;;15.50;14.30;;;;;;;2.53;69.11;100829.03;10461127;28;20395;-66
2020/12/20 22:45:14;;;;;;;15.23;14.07;;;;;;;2.44;69.07;100832.38;10460533;28;20079;-66
2020/12/20 22:50:15;;;;;;;16.00;14.80;;;;;;;2.48;69.07;100831.56;10444243;28;20456;-65
2020/12/20 22:55:17;;;;;;;14.63;13.52;;;;;;;2.80;68.20;100825.03;10461366;28;20041;-65
2020/12/20 23:00:19;;;;;;;15.23;14.13;;;;;;;2.56;68.82;100831.63;10461796;28;20041;-66
2020/12/20 23:05:21;;;;;;;15.32;13.93;;;;;;;2.61;68.86;100836.88;10461410;28;20070;-65
2020/12/20 23:10:22;;;;;;;14.10;13.10;;;;;;;2.63;68.67;100843.00;10460093;28;20082;-65